sensor_id;sensor_type;location;lat;lon;timestamp;pressure;altitude;pressure_sealevel;temperature;humidity
34925;BME280;21130;51.728;8.748;2023-02-19T00:01:41;100410.59;;;7.96;100.00
34925;BME280;21130;51.728;8.748;2023-02-19T00:04:11;100401.47;;;7.95;100.00
34925;BME280;21130;51.728;8.748;2023-02-19T00:06:40;100396.16;;;7.94;100.00
34925;BME280;21130;51.728;8.748;2023-02-19T00:09:08;100388.00;;;7.99;100.00
34925;BME280;21130;51.728;8.748;2023-02-19T00:11:36;100389.94;;;7.98;100.00
34925;BME280;21130;51.728;8.748;2023-02-19T00:14:03;100382.88;;;8.03;100.00
34925;BME280;21130;51.728;8.748;2023-02-19T00:16:32;100376.03;;;8.05;100.00
34925;BME280;21130;51.728;8.748;2023-02-19T00:18:59;100367.13;;;8.03;100.00
34925;BME280;21130;51.728;8.748;2023-02-19T00:21:27;100366.03;;;8.04;100.00
34925;BME280;21130;51.728;8.748;2023-02-19T00:23:56;100363.69;;;8.08;100.00
34925;BME280;21130;51.728;8.748;2023-02-19T00:26:23;100362.59;;;8.09;100.00
34925;BME280;21130;51.728;8.748;2023-02-19T00:28:51;100354.06;;;8.10;100.00
34925;BME280;21130;51.728;8.748;2023-02-19T00:31:20;100351.69;;;8.14;100.00
34925;BME280;21130;51.728;8.748;2023-02-19T00:33:49;100353.34;;;8.15;100.00
34925;BME280;21130;51.728;8.748;2023-02-19T00:36:16;100358.44;;;8.18;100.00
34925;BME280;21130;51.728;8.748;2023-02-19T00:38:43;100359.91;;;8.20;100.00
34925;BME280;21130;51.728;8.748;2023-02-19T00:41:12;100345.59;;;8.23;100.00
34925;BME280;21130;51.728;8.748;2023-02-19T00:43:47;100338.38;;;8.22;100.00
34925;BME280;21130;51.728;8.748;2023-02-19T00:46:14;100339.84;;;8.25;100.00
34925;BME280;21130;51.728;8.748;2023-02-19T00:48:41;100334.91;;;8.27;100.00
34925;BME280;21130;51.728;8.748;2023-02-19T00:51:07;100316.63;;;8.26;100.00
34925;BME280;21130;51.728;8.748;2023-02-19T00:53:34;100333.00;;;8.28;100.00
34925;BME280;21130;51.728;8.748;2023-02-19T00:56:00;100331.44;;;8.32;100.00
34925;BME280;21130;51.728;8.748;2023-02-19T00:58:28;100331.69;;;8.30;100.00
34925;BME280;21130;51.728;8.748;2023-02-19T01:00:55;100330.00;;;8.29;100.00
34925;BME280;21130;51.728;8.748;2023-02-19T01:03:22;100337.22;;;8.30;100.00
34925;BME280;21130;51.728;8.748;2023-02-19T01:05:49;100340.00;;;8.30;100.00
34925;BME280;21130;51.728;8.748;2023-02-19T01:08:16;100321.69;;;8.29;100.00
34925;BME280;21130;51.728;8.748;2023-02-19T01:10:43;100331.44;;;8.32;100.00
34925;BME280;21130;51.728;8.748;2023-02-19T01:13:09;100329.50;;;8.32;100.00
34925;BME280;21130;51.728;8.748;2023-02-19T01:15:37;100340.56;;;8.32;100.00
34925;BME280;21130;51.728;8.748;2023-02-19T01:18:04;100335.66;;;8.34;100.00
34925;BME280;21130;51.728;8.748;2023-02-19T01:23:37;100333.47;;;8.43;100.00
34925;BME280;21130;51.728;8.748;2023-02-19T01:26:04;100340.44;;;8.46;100.00
34925;BME280;21130;51.728;8.748;2023-02-19T01:28:31;100359.66;;;8.40;100.00
34925;BME280;21130;51.728;8.748;2023-02-19T01:31:01;100349.66;;;8.39;100.00
34925;BME280;21130;51.728;8.748;2023-02-19T01:33:28;100352.19;;;8.41;100.00
34925;BME280;21130;51.728;8.748;2023-02-19T01:35:54;100336.88;;;8.38;100.00
34925;BME280;21130;51.728;8.748;2023-02-19T01:38:20;100338.19;;;8.36;100.00
34925;BME280;21130;51.728;8.748;2023-02-19T01:40:54;100342.91;;;8.35;100.00
34925;BME280;21130;51.728;8.748;2023-02-19T01:43:20;100325.44;;;8.35;100.00
34925;BME280;21130;51.728;8.748;2023-02-19T01:45:47;100336.50;;;8.35;100.00
34925;BME280;21130;51.728;8.748;2023-02-19T01:48:18;100341.44;;;8.33;100.00
34925;BME280;21130;51.728;8.748;2023-02-19T01:50:49;100330.13;;;8.34;100.00
34925;BME280;21130;51.728;8.748;2023-02-19T01:53:19;100335.44;;;8.36;100.00
34925;BME280;21130;51.728;8.748;2023-02-19T01:55:47;100336.50;;;8.35;100.00
34925;BME280;21130;51.728;8.748;2023-02-19T01:58:15;100330.13;;;8.34;100.00
34925;BME280;21130;51.728;8.748;2023-02-19T02:00:41;100320.78;;;8.35;100.00
34925;BME280;21130;51.728;8.748;2023-02-19T02:03:08;100331.84;;;8.35;100.00
34925;BME280;21130;51.728;8.748;2023-02-19T02:05:43;100333.97;;;8.33;100.00
34925;BME280;21130;51.728;8.748;2023-02-19T02:08:12;100327.84;;;8.31;100.00
34925;BME280;21130;51.728;8.748;2023-02-19T02:10:57;100323.41;;;8.30;100.00
34925;BME280;21130;51.728;8.748;2023-02-19T02:13:23;100336.13;;;8.31;100.00
34925;BME280;21130;51.728;8.748;2023-02-19T02:15:56;100341.66;;;8.31;100.00
34925;BME280;21130;51.728;8.748;2023-02-19T02:18:33;100338.06;;;8.31;100.00
34925;BME280;21130;51.728;8.748;2023-02-19T02:21:22;100333.16;;;8.33;100.00
34925;BME280;21130;51.728;8.748;2023-02-19T02:24:05;100338.69;;;8.33;100.00
34925;BME280;21130;51.728;8.748;2023-02-19T02:26:45;100323.41;;;8.30;100.00
34925;BME280;21130;51.728;8.748;2023-02-19T02:29:48;100325.56;;;8.28;100.00
34925;BME280;21130;51.728;8.748;2023-02-19T02:32:19;100324.72;;;8.28;100.00
34925;BME280;21130;51.728;8.748;2023-02-19T02:34:50;100322.16;;;8.26;100.00
34925;BME280;21130;51.728;8.748;2023-02-19T02:37:18;100316.03;;;8.24;100.00
34925;BME280;21130;51.728;8.748;2023-02-19T02:39:45;100313.47;;;8.22;100.00
34925;BME280;21130;51.728;8.748;2023-02-19T02:42:12;100328.19;;;8.23;100.00
34925;BME280;21130;51.728;8.748;2023-02-19T02:45:22;100326.94;;;8.19;100.00
34925;BME280;21130;51.728;8.748;2023-02-19T02:48:06;100322.25;;;8.19;100.00
34925;BME280;21130;51.728;8.748;2023-02-19T02:50:37;100323.97;;;8.20;100.00
34925;BME280;21130;51.728;8.748;2023-02-19T02:53:09;100318.66;;;8.19;100.00
34925;BME280;21130;51.728;8.748;2023-02-19T02:55:54;100316.72;;;8.19;100.00
34925;BME280;21130;51.728;8.748;2023-02-19T02:58:23;100318.88;;;8.17;100.00
34925;BME280;21130;51.728;8.748;2023-02-19T03:00:55;100314.44;;;8.16;100.00
34925;BME280;21130;51.728;8.748;2023-02-19T03:03:44;100317.81;;;8.18;100.00
34925;BME280;21130;51.728;8.748;2023-02-19T03:06:15;100319.25;;;8.21;100.00
34925;BME280;21130;51.728;8.748;2023-02-19T03:08:45;100315.88;;;8.19;100.00
34925;BME280;21130;51.728;8.748;2023-02-19T03:11:14;100325.50;;;8.16;100.00
34925;BME280;21130;51.728;8.748;2023-02-19T03:14:03;100329.34;;;8.15;100.00
34925;BME280;21130;51.728;8.748;2023-02-19T03:16:50;100325.72;;;8.15;100.00
34925;BME280;21130;51.728;8.748;2023-02-19T03:19:42;100326.19;;;8.12;100.00
34925;BME280;21130;51.728;8.748;2023-02-19T03:22:14;100326.44;;;8.10;100.00
34925;BME280;21130;51.728;8.748;2023-02-19T03:24:49;100336.03;;;8.08;100.00
34925;BME280;21130;51.728;8.748;2023-02-19T03:27:36;100331.56;;;8.07;100.00
34925;BME280;21130;51.728;8.748;2023-02-19T03:30:08;100328.81;;;8.07;100.00
34925;BME280;21130;51.728;8.748;2023-02-19T03:32:39;100339.03;;;8.06;100.00
34925;BME280;21130;51.728;8.748;2023-02-19T03:35:10;100342.41;;;8.08;100.00
34925;BME280;21130;51.728;8.748;2023-02-19T03:37:43;100348.16;;;8.07;100.00
34925;BME280;21130;51.728;8.748;2023-02-19T03:40:10;100345.38;;;8.07;100.00
34925;BME280;21130;51.728;8.748;2023-02-19T03:42:41;100348.63;;;8.04;100.00
34925;BME280;21130;51.728;8.748;2023-02-19T03:45:26;100344.78;;;8.05;100.00
34925;BME280;21130;51.728;8.748;2023-02-19T03:48:04;100344.78;;;8.05;100.00
34925;BME280;21130;51.728;8.748;2023-02-19T03:50:40;100342.00;;;8.05;100.00
34925;BME280;21130;51.728;8.748;2023-02-19T03:53:12;100353.06;;;8.05;100.00
34925;BME280;21130;51.728;8.748;2023-02-19T03:55:48;100358.59;;;8.05;100.00
34925;BME280;21130;51.728;8.748;2023-02-19T03:58:25;100362.44;;;8.04;100.00
34925;BME280;21130;51.728;8.748;2023-02-19T04:00:56;100363.53;;;8.03;100.00
34925;BME280;21130;51.728;8.748;2023-02-19T04:03:30;100375.28;;;7.98;100.00
34925;BME280;21130;51.728;8.748;2023-02-19T04:06:01;100382.09;;;7.95;100.00
34925;BME280;21130;51.728;8.748;2023-02-19T04:08:29;100385.09;;;7.94;100.00
34925;BME280;21130;51.728;8.748;2023-02-19T04:10:57;100389.78;;;7.93;100.00
34925;BME280;21130;51.728;8.748;2023-02-19T04:13:26;100398.53;;;7.90;100.00
34925;BME280;21130;51.728;8.748;2023-02-19T04:15:56;100383.47;;;7.86;100.00
34925;BME280;21130;51.728;8.748;2023-02-19T04:18:30;100389.00;;;7.86;100.00
34925;BME280;21130;51.728;8.748;2023-02-19T04:20:58;100390.16;;;7.78;100.00
34925;BME280;21130;51.728;8.748;2023-02-19T04:23:27;100400.59;;;7.76;100.00
34925;BME280;21130;51.728;8.748;2023-02-19T04:25:58;100393.22;;;7.70;100.00
34925;BME280;21130;51.728;8.748;2023-02-19T04:28:27;100382.25;;;7.64;100.00
34925;BME280;21130;51.728;8.748;2023-02-19T04:30:54;100405.84;;;7.60;100.00
34925;BME280;21130;51.728;8.748;2023-02-19T04:33:20;100393.59;;;7.55;100.00
34925;BME280;21130;51.728;8.748;2023-02-19T04:35:48;100409.69;;;7.58;100.00
34925;BME280;21130;51.728;8.748;2023-02-19T04:38:14;100420.13;;;7.56;100.00
34925;BME280;21130;51.728;8.748;2023-02-19T04:40:41;100411.00;;;7.56;100.00
34925;BME280;21130;51.728;8.748;2023-02-19T04:43:07;100414.84;;;7.55;100.00
34925;BME280;21130;51.728;8.748;2023-02-19T04:45:36;100419.06;;;7.57;100.00
34925;BME280;21130;51.728;8.748;2023-02-19T04:48:02;100432.00;;;7.57;100.00
34925;BME280;21130;51.728;8.748;2023-02-19T04:50:29;100427.13;;;7.59;100.00
34925;BME280;21130;51.728;8.748;2023-02-19T04:52:57;100431.13;;;7.63;100.00
34925;BME280;21130;51.728;8.748;2023-02-19T04:55:23;100438.56;;;7.63;100.00
34925;BME280;21130;51.728;8.748;2023-02-19T04:57:50;100446.38;;;7.66;100.00
34925;BME280;21130;51.728;8.748;2023-02-19T05:00:16;100444.69;;;7.65;100.00
34925;BME280;21130;51.728;8.748;2023-02-19T05:02:43;100450.84;;;7.67;100.00
34925;BME280;21130;51.728;8.748;2023-02-19T05:05:09;100460.41;;;7.64;100.00
34925;BME280;21130;51.728;8.748;2023-02-19T05:07:35;100455.13;;;7.63;100.00
34925;BME280;21130;51.728;8.748;2023-02-19T05:10:03;100451.28;;;7.64;100.00
34925;BME280;21130;51.728;8.748;2023-02-19T05:12:30;100461.50;;;7.63;100.00
34925;BME280;21130;51.728;8.748;2023-02-19T05:14:57;100465.56;;;7.61;100.00
34925;BME280;21130;51.728;8.748;2023-02-19T05:17:23;100462.34;;;7.64;100.00
34925;BME280;21130;51.728;8.748;2023-02-19T05:19:50;100466.63;;;7.60;100.00
34925;BME280;21130;51.728;8.748;2023-02-19T05:22:16;100474.31;;;7.57;100.00
34925;BME280;21130;51.728;8.748;2023-02-19T05:24:43;100469.84;;;7.56;100.00
34925;BME280;21130;51.728;8.748;2023-02-19T05:27:11;100463.69;;;7.54;100.00
34925;BME280;21130;51.728;8.748;2023-02-19T05:29:38;100469.47;;;7.53;100.00
34925;BME280;21130;51.728;8.748;2023-02-19T05:32:04;100473.06;;;7.53;100.00
34925;BME280;21130;51.728;8.748;2023-02-19T05:34:31;100469.00;;;7.56;100.00
34925;BME280;21130;51.728;8.748;2023-02-19T05:36:58;100472.59;;;7.56;100.00
34925;BME280;21130;51.728;8.748;2023-02-19T05:39:24;100483.91;;;7.55;100.00
34925;BME280;21130;51.728;8.748;2023-02-19T05:41:50;100486.41;;;7.56;100.00
34925;BME280;21130;51.728;8.748;2023-02-19T05:44:18;100484.72;;;7.55;100.00
34925;BME280;21130;51.728;8.748;2023-02-19T05:46:44;100496.41;;;7.57;100.00
34925;BME280;21130;51.728;8.748;2023-02-19T05:49:11;100505.28;;;7.60;100.00
34925;BME280;21130;51.728;8.748;2023-02-19T05:51:37;100503.22;;;7.55;100.00
34925;BME280;21130;51.728;8.748;2023-02-19T05:54:04;100509.81;;;7.54;100.00
34925;BME280;21130;51.728;8.748;2023-02-19T05:56:32;100499.00;;;7.52;100.00
34925;BME280;21130;51.728;8.748;2023-02-19T05:59:01;100497.91;;;7.53;100.00
34925;BME280;21130;51.728;8.748;2023-02-19T06:01:30;100510.03;;;7.52;100.00
34925;BME280;21130;51.728;8.748;2023-02-19T06:03:56;100515.56;;;7.52;100.00
34925;BME280;21130;51.728;8.748;2023-02-19T06:06:23;100508.34;;;7.51;100.00
34925;BME280;21130;51.728;8.748;2023-02-19T06:08:51;100523.22;;;7.50;100.00
34925;BME280;21130;51.728;8.748;2023-02-19T06:11:18;100522.38;;;7.50;100.00
34925;BME280;21130;51.728;8.748;2023-02-19T06:13:45;100521.50;;;7.49;100.00
34925;BME280;21130;51.728;8.748;2023-02-19T06:16:11;100532.13;;;7.52;100.00
34925;BME280;21130;51.728;8.748;2023-02-19T06:18:39;100537.66;;;7.52;100.00
34925;BME280;21130;51.728;8.748;2023-02-19T06:21:07;100537.88;;;7.51;100.00
34925;BME280;21130;51.728;8.748;2023-02-19T06:23:34;100537.03;;;7.50;100.00
34925;BME280;21130;51.728;8.748;2023-02-19T06:26:06;100543.59;;;7.49;100.00
34925;BME280;21130;51.728;8.748;2023-02-19T06:28:33;100556.38;;;7.50;100.00
34925;BME280;21130;51.728;8.748;2023-02-19T06:30:59;100546.38;;;7.49;100.00
34925;BME280;21130;51.728;8.748;2023-02-19T06:33:26;100557.66;;;7.48;100.00
34925;BME280;21130;51.728;8.748;2023-02-19T06:35:57;100560.19;;;7.49;100.00
34925;BME280;21130;51.728;8.748;2023-02-19T06:38:24;100564.66;;;7.50;100.00
34925;BME280;21130;51.728;8.748;2023-02-19T06:40:50;100567.63;;;7.49;100.00
34925;BME280;21130;51.728;8.748;2023-02-19T06:43:17;100565.06;;;7.47;100.00
34925;BME280;21130;51.728;8.748;2023-02-19T06:45:43;100577.19;;;7.46;100.00
34925;BME280;21130;51.728;8.748;2023-02-19T06:48:10;100582.50;;;7.48;100.00
34925;BME280;21130;51.728;8.748;2023-02-19T06:50:36;100585.03;;;7.49;100.00
34925;BME280;21130;51.728;8.748;2023-02-19T06:53:04;100598.00;;;7.49;100.00
34925;BME280;21130;51.728;8.748;2023-02-19T06:55:30;100593.09;;;7.51;100.00
34925;BME280;21130;51.728;8.748;2023-02-19T06:57:57;100595.25;;;7.49;100.00
34925;BME280;21130;51.728;8.748;2023-02-19T07:00:23;100586.31;;;7.47;100.00
34925;BME280;21130;51.728;8.748;2023-02-19T07:02:50;100603.06;;;7.52;100.00
34925;BME280;21130;51.728;8.748;2023-02-19T07:05:20;100608.59;;;7.52;100.00
34925;BME280;21130;51.728;8.748;2023-02-19T07:07:47;100611.59;;;7.50;100.00
34925;BME280;21130;51.728;8.748;2023-02-19T07:10:15;100605.22;;;7.50;100.00
34925;BME280;21130;51.728;8.748;2023-02-19T07:12:42;100615.19;;;7.51;100.00
34925;BME280;21130;51.728;8.748;2023-02-19T07:15:08;100621.56;;;7.51;100.00
34925;BME280;21130;51.728;8.748;2023-02-19T07:17:35;100629.41;;;7.54;100.00
34925;BME280;21130;51.728;8.748;2023-02-19T07:20:01;100627.09;;;7.51;100.00
34925;BME280;21130;51.728;8.748;2023-02-19T07:22:28;100629.63;;;7.53;100.00
34925;BME280;21130;51.728;8.748;2023-02-19T07:24:54;100639.22;;;7.50;100.00
34925;BME280;21130;51.728;8.748;2023-02-19T07:27:22;100646.88;;;7.48;100.00
34925;BME280;21130;51.728;8.748;2023-02-19T07:29:49;100645.56;;;7.51;100.00
34925;BME280;21130;51.728;8.748;2023-02-19T07:32:15;100649.81;;;7.53;100.00
34925;BME280;21130;51.728;8.748;2023-02-19T07:34:41;100653.66;;;7.52;100.00
34925;BME280;21130;51.728;8.748;2023-02-19T07:37:08;100664.69;;;7.52;100.00
34925;BME280;21130;51.728;8.748;2023-02-19T07:39:35;100672.53;;;7.55;100.00
34925;BME280;21130;51.728;8.748;2023-02-19T07:42:01;100671.06;;;7.53;100.00
34925;BME280;21130;51.728;8.748;2023-02-19T07:44:29;100681.28;;;7.52;100.00
34925;BME280;21130;51.728;8.748;2023-02-19T07:46:55;100685.91;;;7.58;100.00
34925;BME280;21130;51.728;8.748;2023-02-19T07:49:21;100682.50;;;7.56;100.00
34925;BME280;21130;51.728;8.748;2023-02-19T07:51:48;100684.22;;;7.57;100.00
34925;BME280;21130;51.728;8.748;2023-02-19T07:54:14;100700.78;;;7.57;100.00
34925;BME280;21130;51.728;8.748;2023-02-19T07:56:41;100722.44;;;7.61;100.00
34925;BME280;21130;51.728;8.748;2023-02-19T07:59:07;100720.44;;;7.29;100.00
34925;BME280;21130;51.728;8.748;2023-02-19T08:01:35;100730.97;;;6.74;100.00
34925;BME280;21130;51.728;8.748;2023-02-19T08:04:19;100752.44;;;6.32;100.00
34925;BME280;21130;51.728;8.748;2023-02-19T08:06:45;100762.34;;;6.06;100.00
34925;BME280;21130;51.728;8.748;2023-02-19T08:09:11;100763.34;;;5.92;100.00
34925;BME280;21130;51.728;8.748;2023-02-19T08:11:38;100769.66;;;5.73;100.00
34925;BME280;21130;51.728;8.748;2023-02-19T08:14:23;100771.91;;;5.56;100.00
34925;BME280;21130;51.728;8.748;2023-02-19T08:16:53;100775.91;;;5.53;100.00
34925;BME280;21130;51.728;8.748;2023-02-19T08:19:20;100776.94;;;5.46;100.00
34925;BME280;21130;51.728;8.748;2023-02-19T08:21:46;100773.69;;;5.29;100.00
34925;BME280;21130;51.728;8.748;2023-02-19T08:24:14;100779.66;;;5.32;100.00
34925;BME280;21130;51.728;8.748;2023-02-19T08:26:41;100779.66;;;5.32;100.00
34925;BME280;21130;51.728;8.748;2023-02-19T08:29:07;100785.00;;;5.47;100.00
34925;BME280;21130;51.728;8.748;2023-02-19T08:31:35;100788.41;;;5.49;100.00
34925;BME280;21130;51.728;8.748;2023-02-19T08:34:03;100797.09;;;5.53;100.00
34925;BME280;21130;51.728;8.748;2023-02-19T08:36:30;100792.63;;;5.45;100.00
34925;BME280;21130;51.728;8.748;2023-02-19T08:38:56;100796.03;;;5.54;100.00
34925;BME280;21130;51.728;8.748;2023-02-19T08:41:47;100805.44;;;5.31;100.00
34925;BME280;21130;51.728;8.748;2023-02-19T08:44:14;100814.88;;;5.50;100.00
34925;BME280;21130;51.728;8.748;2023-02-19T08:46:41;100822.53;;;5.55;100.00
34925;BME280;21130;51.728;8.748;2023-02-19T08:49:09;100829.47;;;5.51;100.00
34925;BME280;21130;51.728;8.748;2023-02-19T08:51:35;100825.47;;;5.53;100.00
34925;BME280;21130;51.728;8.748;2023-02-19T08:54:02;100833.53;;;5.55;100.00
34925;BME280;21130;51.728;8.748;2023-02-19T08:56:29;100832.66;;;5.48;100.00
34925;BME280;21130;51.728;8.748;2023-02-19T08:58:55;100831.75;;;5.40;100.00
34925;BME280;21130;51.728;8.748;2023-02-19T09:01:22;100834.31;;;5.42;100.00
34925;BME280;21130;51.728;8.748;2023-02-19T09:03:48;100834.94;;;5.44;100.00
34925;BME280;21130;51.728;8.748;2023-02-19T09:06:18;100836.25;;;5.48;100.00
34925;BME280;21130;51.728;8.748;2023-02-19T09:08:44;100845.81;;;5.52;100.00
34925;BME280;21130;51.728;8.748;2023-02-19T09:11:11;100855.56;;;5.55;100.00
34925;BME280;21130;51.728;8.748;2023-02-19T09:13:37;100855.81;;;5.60;100.00
34925;BME280;21130;51.728;8.748;2023-02-19T09:16:04;100860.06;;;5.62;100.00
34925;BME280;21130;51.728;8.748;2023-02-19T09:18:31;100859.34;;;5.47;100.00
34925;BME280;21130;51.728;8.748;2023-02-19T09:20:59;100867.78;;;5.46;100.00
34925;BME280;21130;51.728;8.748;2023-02-19T09:23:27;100878.78;;;5.46;100.00
34925;BME280;21130;51.728;8.748;2023-02-19T09:25:57;100886.25;;;5.52;100.00
34925;BME280;21130;51.728;8.748;2023-02-19T09:28:25;100894.09;;;5.55;100.00
34925;BME280;21130;51.728;8.748;2023-02-19T09:30:52;100897.47;;;5.50;100.00
34925;BME280;21130;51.728;8.748;2023-02-19T09:33:18;100902.06;;;5.43;100.00
34925;BME280;21130;51.728;8.748;2023-02-19T09:35:45;100912.47;;;5.48;100.00
34925;BME280;21130;51.728;8.748;2023-02-19T09:38:11;100913.44;;;5.33;100.00
34925;BME280;21130;51.728;8.748;2023-02-19T09:40:39;100912.44;;;5.41;100.00
34925;BME280;21130;51.728;8.748;2023-02-19T09:43:06;100916.53;;;5.52;100.00
34925;BME280;21130;51.728;8.748;2023-02-19T09:45:34;100923.16;;;5.64;100.00
34925;BME280;21130;51.728;8.748;2023-02-19T09:48:03;100934.28;;;5.77;100.00
34925;BME280;21130;51.728;8.748;2023-02-19T09:50:33;100932.75;;;6.03;100.00
34925;BME280;21130;51.728;8.748;2023-02-19T09:53:02;100941.28;;;6.15;100.00
34925;BME280;21130;51.728;8.748;2023-02-19T09:55:33;100948.66;;;6.08;100.00
34925;BME280;21130;51.728;8.748;2023-02-19T09:58:07;100939.72;;;5.99;100.00
34925;BME280;21130;51.728;8.748;2023-02-19T10:00:39;100950.34;;;6.09;100.00
34925;BME280;21130;51.728;8.748;2023-02-19T10:03:13;100953.28;;;6.00;100.00
34925;BME280;21130;51.728;8.748;2023-02-19T10:05:44;100957.16;;;6.13;100.00
34925;BME280;21130;51.728;8.748;2023-02-19T10:08:14;100962.69;;;6.19;100.00
34925;BME280;21130;51.728;8.748;2023-02-19T10:10:42;100974.69;;;6.40;100.00
34925;BME280;21130;51.728;8.748;2023-02-19T10:13:17;100971.75;;;6.48;100.00
34925;BME280;21130;51.728;8.748;2023-02-19T10:15:46;100971.34;;;6.58;100.00
34925;BME280;21130;51.728;8.748;2023-02-19T10:18:20;100975.34;;;6.48;100.00
34925;BME280;21130;51.728;8.748;2023-02-19T10:20:48;100995.56;;;6.62;100.00
34925;BME280;21130;51.728;8.748;2023-02-19T10:23:16;100996.19;;;6.71;100.00
34925;BME280;21130;51.728;8.748;2023-02-19T10:25:46;101010.88;;;6.78;100.00
34925;BME280;21130;51.728;8.748;2023-02-19T10:28:16;101014.69;;;6.77;100.00
34925;BME280;21130;51.728;8.748;2023-02-19T10:30:43;101021.72;;;6.80;100.00
34925;BME280;21130;51.728;8.748;2023-02-19T10:33:15;101030.56;;;6.68;100.00
34925;BME280;21130;51.728;8.748;2023-02-19T10:36:01;101031.09;;;6.44;100.00
34925;BME280;21130;51.728;8.748;2023-02-19T10:38:31;101034.75;;;6.51;100.00
34925;BME280;21130;51.728;8.748;2023-02-19T10:41:04;101040.06;;;6.59;100.00
34925;BME280;21130;51.728;8.748;2023-02-19T10:43:35;101039.91;;;6.67;100.00
34925;BME280;21130;51.728;8.748;2023-02-19T10:46:06;101052.38;;;6.57;100.00
34925;BME280;21130;51.728;8.748;2023-02-19T10:48:44;101051.88;;;6.40;100.00
34925;BME280;21130;51.728;8.748;2023-02-19T10:51:11;101057.16;;;6.35;100.00
34925;BME280;21130;51.728;8.748;2023-02-19T10:53:47;101059.50;;;6.44;100.00
34925;BME280;21130;51.728;8.748;2023-02-19T10:56:21;101054.94;;;6.58;100.00
34925;BME280;21130;51.728;8.748;2023-02-19T10:58:49;101051.81;;;6.75;100.00
34925;BME280;21130;51.728;8.748;2023-02-19T11:01:18;101046.78;;;6.85;100.00
34925;BME280;21130;51.728;8.748;2023-02-19T11:03:46;101048.09;;;7.02;100.00
34925;BME280;21130;51.728;8.748;2023-02-19T11:06:14;101041.72;;;7.08;100.00
34925;BME280;21130;51.728;8.748;2023-02-19T11:08:47;101046.00;;;7.18;100.00
34925;BME280;21130;51.728;8.748;2023-02-19T11:11:23;101045.41;;;7.35;100.00
34925;BME280;21130;51.728;8.748;2023-02-19T11:13:53;101041.81;;;7.55;100.00
34925;BME280;21130;51.728;8.748;2023-02-19T11:16:19;101044.34;;;7.56;100.00
34925;BME280;21130;51.728;8.748;2023-02-19T11:18:52;101053.69;;;7.69;100.00
34925;BME280;21130;51.728;8.748;2023-02-19T11:21:25;101056.00;;;7.52;100.00
34925;BME280;21130;51.728;8.748;2023-02-19T11:31:39;101069.34;;;7.15;100.00
34925;BME280;21130;51.728;8.748;2023-02-19T11:34:27;101078.94;;;7.39;100.00
34925;BME280;21130;51.728;8.748;2023-02-19T11:37:10;101085.97;;;7.62;100.00
34925;BME280;21130;51.728;8.748;2023-02-19T11:39:38;101072.19;;;7.75;100.00
34925;BME280;21130;51.728;8.748;2023-02-19T11:42:27;101071.09;;;7.36;100.00
34925;BME280;21130;51.728;8.748;2023-02-19T11:45:17;101077.00;;;7.26;100.00
34925;BME280;21130;51.728;8.748;2023-02-19T11:48:10;101074.88;;;7.22;100.00
34925;BME280;21130;51.728;8.748;2023-02-19T11:50:48;101077.63;;;7.22;100.00
34925;BME280;21130;51.728;8.748;2023-02-19T11:53:24;101083.38;;;7.27;100.00
34925;BME280;21130;51.728;8.748;2023-02-19T11:58:54;101072.19;;;7.55;100.00
34925;BME280;21130;51.728;8.748;2023-02-19T12:01:32;101066.19;;;8.05;100.00
34925;BME280;21130;51.728;8.748;2023-02-19T12:04:19;101062.94;;;8.61;100.00
34925;BME280;21130;51.728;8.748;2023-02-19T12:07:03;101062.59;;;8.82;100.00
34925;BME280;21130;51.728;8.748;2023-02-19T12:09:41;101060.88;;;8.43;100.00
34925;BME280;21130;51.728;8.748;2023-02-19T12:12:28;101056.69;;;8.79;100.00
34925;BME280;21130;51.728;8.748;2023-02-19T12:15:12;101046.97;;;9.01;100.00
34925;BME280;21130;51.728;8.748;2023-02-19T12:20:54;101042.69;;;9.37;100.00
34925;BME280;21130;51.728;8.748;2023-02-19T12:23:36;101043.63;;;9.31;100.00
34925;BME280;21130;51.728;8.748;2023-02-19T12:26:15;101039.25;;;9.42;100.00
34925;BME280;21130;51.728;8.748;2023-02-19T12:29:00;101049.19;;;8.86;100.00
34925;BME280;21130;51.728;8.748;2023-02-19T12:32:06;101051.59;;;8.76;100.00
34925;BME280;21130;51.728;8.748;2023-02-19T12:34:58;101056.50;;;8.67;100.00
34925;BME280;21130;51.728;8.748;2023-02-19T12:37:40;101056.00;;;8.12;100.00
34925;BME280;21130;51.728;8.748;2023-02-19T12:40:27;101063.44;;;7.65;100.00
34925;BME280;21130;51.728;8.748;2023-02-19T12:43:06;101067.09;;;7.85;100.00
34925;BME280;21130;51.728;8.748;2023-02-19T12:45:38;101064.94;;;8.00;100.00
34925;BME280;21130;51.728;8.748;2023-02-19T12:48:14;101076.44;;;7.91;100.00
34925;BME280;21130;51.728;8.748;2023-02-19T12:50:47;101083.44;;;7.87;100.00
34925;BME280;21130;51.728;8.748;2023-02-19T12:53:28;101092.59;;;7.94;100.00
34925;BME280;21130;51.728;8.748;2023-02-19T12:56:00;101086.22;;;7.73;100.00
34925;BME280;21130;51.728;8.748;2023-02-19T12:58:34;101096.38;;;7.33;100.00
34925;BME280;21130;51.728;8.748;2023-02-19T13:01:04;101101.47;;;7.36;100.00
34925;BME280;21130;51.728;8.748;2023-02-19T13:03:36;101110.63;;;7.50;100.00
34925;BME280;21130;51.728;8.748;2023-02-19T13:06:10;101114.00;;;7.39;100.00
34925;BME280;21130;51.728;8.748;2023-02-19T13:08:46;101118.88;;;7.30;100.00
34925;BME280;21130;51.728;8.748;2023-02-19T13:11:16;101123.69;;;7.08;100.00
34925;BME280;21130;51.728;8.748;2023-02-19T13:13:47;101124.81;;;7.33;100.00
34925;BME280;21130;51.728;8.748;2023-02-19T13:16:17;101131.16;;;7.21;100.00
34925;BME280;21130;51.728;8.748;2023-02-19T13:18:45;101126.25;;;7.16;100.00
34925;BME280;21130;51.728;8.748;2023-02-19T13:21:13;101126.63;;;7.06;100.00
34925;BME280;21130;51.728;8.748;2023-02-19T13:24:05;101133.22;;;7.12;100.00
34925;BME280;21130;51.728;8.748;2023-02-19T13:26:50;101129.22;;;7.14;100.00